createdAt,value
2023-05-18T00:02:23.423Z,99.90
2023-05-18T00:04:51.377Z,99.90
2023-05-18T00:07:19.304Z,99.90
2023-05-18T00:09:47.172Z,99.90
2023-05-18T00:12:15.094Z,99.90
2023-05-18T00:14:42.887Z,99.90
2023-05-18T00:17:12.178Z,99.90
2023-05-18T00:19:40.583Z,99.90
2023-05-18T00:22:08.679Z,99.90
2023-05-18T00:24:37.224Z,99.90
2023-05-18T00:27:05.497Z,99.90
2023-05-18T00:29:33.294Z,99.90
2023-05-18T00:32:01.196Z,99.90
2023-05-18T00:34:30.678Z,99.90
2023-05-18T00:36:58.472Z,99.90
2023-05-18T00:39:26.331Z,99.90
2023-05-18T00:41:54.190Z,99.90
2023-05-18T00:44:22.951Z,99.90
2023-05-18T00:46:51.028Z,99.90
2023-05-18T00:49:19.330Z,99.90
2023-05-18T00:51:48.872Z,99.90
2023-05-18T00:54:17.514Z,99.90
2023-05-18T00:56:46.626Z,99.90
2023-05-18T00:59:15.380Z,99.90
2023-05-18T01:01:46.431Z,99.90
2023-05-18T01:04:15.712Z,99.90
2023-05-18T01:06:46.242Z,99.90
2023-05-18T01:09:16.189Z,99.90
2023-05-18T01:11:54.617Z,99.90
2023-05-18T01:14:30.619Z,99.90
2023-05-18T01:17:06.726Z,99.90
2023-05-18T01:20:01.351Z,99.90
2023-05-18T01:22:39.239Z,99.90
2023-05-18T01:25:19.524Z,99.90
2023-05-18T01:27:50.061Z,99.90
2023-05-18T01:30:18.262Z,99.90
2023-05-18T01:32:47.323Z,99.90
2023-05-18T01:35:15.144Z,99.90
2023-05-18T01:37:42.970Z,99.90
2023-05-18T01:40:11.108Z,99.90
2023-05-18T01:42:45.637Z,99.90
2023-05-18T01:45:21.853Z,99.90
2023-05-18T01:47:57.498Z,99.90
2023-05-18T01:50:40.931Z,99.90
2023-05-18T01:53:15.581Z,99.90
2023-05-18T01:55:44.831Z,99.90
2023-05-18T01:58:14.717Z,99.90
2023-05-18T02:00:44.311Z,99.90
2023-05-18T02:03:14.069Z,99.90
2023-05-18T02:05:42.055Z,99.90
2023-05-18T02:08:09.889Z,99.90
2023-05-18T02:10:37.739Z,99.90
2023-05-18T02:13:05.606Z,99.90
2023-05-18T02:15:33.413Z,99.90
2023-05-18T02:18:02.874Z,99.90
2023-05-18T02:20:33.343Z,99.90
2023-05-18T02:23:01.246Z,99.90
2023-05-18T02:25:29.314Z,99.90
2023-05-18T02:27:57.277Z,99.90
2023-05-18T02:30:25.133Z,99.90
2023-05-18T02:32:52.970Z,99.90
2023-05-18T02:35:22.127Z,99.90
2023-05-18T02:37:50.004Z,99.90
2023-05-18T02:40:18.140Z,99.90
2023-05-18T02:42:46.203Z,99.90
2023-05-18T02:45:14.065Z,99.90
2023-05-18T02:47:43.828Z,99.90
2023-05-18T02:50:12.209Z,99.90
2023-05-18T02:52:41.585Z,99.90
2023-05-18T02:55:10.037Z,99.90
2023-05-18T02:57:37.877Z,99.90
2023-05-18T03:00:11.481Z,99.90
2023-05-18T03:02:40.221Z,99.90
2023-05-18T03:05:09.579Z,99.90
2023-05-18T03:07:37.519Z,99.90
2023-05-18T03:10:07.872Z,99.90
2023-05-18T03:12:35.681Z,99.90
2023-05-18T03:15:03.882Z,99.90
2023-05-18T03:17:31.705Z,99.90
2023-05-18T03:19:59.540Z,99.90
2023-05-18T03:22:27.427Z,99.90
2023-05-18T03:24:55.377Z,99.90
2023-05-18T03:27:25.825Z,99.90
2023-05-18T03:29:54.107Z,99.90
2023-05-18T03:32:21.866Z,99.90
2023-05-18T03:34:51.028Z,99.90
2023-05-18T03:37:18.852Z,99.90
2023-05-18T03:39:46.811Z,99.90
2023-05-18T03:42:14.638Z,99.90
2023-05-18T03:44:43.837Z,99.90
2023-05-18T03:47:11.615Z,99.90
2023-05-18T03:49:39.416Z,99.90
2023-05-18T03:52:08.195Z,99.90
2023-05-18T03:54:36.310Z,99.90
2023-05-18T03:57:04.193Z,99.90
2023-05-18T03:59:32.001Z,99.90
2023-05-18T04:02:01.338Z,99.90
2023-05-18T04:04:30.797Z,99.90
2023-05-18T04:06:58.583Z,99.90
2023-05-18T04:09:27.966Z,99.90
2023-05-18T04:11:55.877Z,99.90
2023-05-18T04:14:24.605Z,99.90
2023-05-18T04:16:52.863Z,99.90
2023-05-18T04:19:22.883Z,99.90
2023-05-18T04:21:50.753Z,99.90
2023-05-18T04:24:19.389Z,99.90
2023-05-18T04:26:47.201Z,99.90
2023-05-18T04:29:15.459Z,99.90
2023-05-18T04:31:44.896Z,99.90
2023-05-18T04:34:13.627Z,99.90
2023-05-18T04:36:44.229Z,99.90
2023-05-18T04:39:12.607Z,99.90
2023-05-18T04:41:42.092Z,99.90
2023-05-18T04:44:10.405Z,99.90
2023-05-18T04:46:40.668Z,99.90
2023-05-18T04:49:09.132Z,99.90
2023-05-18T04:51:36.984Z,99.90
2023-05-18T04:54:08.938Z,99.90
2023-05-18T04:56:36.936Z,99.90
2023-05-18T04:59:04.911Z,99.90
2023-05-18T05:01:32.752Z,99.90
2023-05-18T05:04:00.683Z,99.90
2023-05-18T05:06:28.510Z,99.90
2023-05-18T05:08:56.308Z,99.90
2023-05-18T05:11:25.615Z,99.90
2023-05-18T05:13:53.781Z,99.90
2023-05-18T05:16:21.651Z,99.90
2023-05-18T05:18:49.491Z,99.90
2023-05-18T05:21:17.384Z,99.90
2023-05-18T05:23:45.348Z,99.90
2023-05-18T05:26:13.166Z,99.90
2023-05-18T05:28:42.326Z,99.90
2023-05-18T05:31:10.277Z,99.90
2023-05-18T05:33:38.236Z,99.90
2023-05-18T05:36:06.501Z,99.90
2023-05-18T05:38:34.505Z,99.90
2023-05-18T05:41:02.774Z,99.90
2023-05-18T05:43:30.586Z,99.90
2023-05-18T05:45:59.734Z,99.90
2023-05-18T05:48:27.514Z,99.90
2023-05-18T05:50:55.342Z,99.90
2023-05-18T05:53:23.481Z,99.90
2023-05-18T05:55:51.311Z,99.90
2023-05-18T05:58:19.302Z,99.90
2023-05-18T06:00:47.288Z,99.90
2023-05-18T06:03:16.413Z,99.90
2023-05-18T06:05:44.253Z,99.90
2023-05-18T06:08:12.087Z,99.90
2023-05-18T06:10:41.195Z,99.90
2023-05-18T06:13:09.125Z,99.90
2023-05-18T06:15:36.921Z,99.90
2023-05-18T06:18:05.004Z,99.90
2023-05-18T06:20:34.218Z,99.90
2023-05-18T06:23:02.033Z,99.90
2023-05-18T06:25:30.061Z,99.90
2023-05-18T06:27:58.030Z,99.90
2023-05-18T06:30:25.849Z,99.90
2023-05-18T06:32:53.643Z,99.90
2023-05-18T06:35:21.758Z,99.90
2023-05-18T06:37:50.911Z,99.90
2023-05-18T06:40:18.757Z,99.90
2023-05-18T06:42:46.611Z,99.90
2023-05-18T06:45:14.446Z,99.90
2023-05-18T06:47:42.863Z,99.90
2023-05-18T06:50:11.332Z,99.90
2023-05-18T06:52:39.188Z,99.90
2023-05-18T06:55:09.533Z,99.90
2023-05-18T06:57:37.364Z,99.90
2023-05-18T07:00:07.588Z,99.90
2023-05-18T07:02:35.515Z,99.90
2023-05-18T07:05:05.535Z,99.90
2023-05-18T07:07:33.368Z,99.90
2023-05-18T07:10:01.213Z,99.90
2023-05-18T07:12:30.332Z,99.90
2023-05-18T07:14:58.172Z,99.90
2023-05-18T07:17:26.121Z,99.90
2023-05-18T07:19:53.917Z,99.90
2023-05-18T07:22:21.683Z,99.90
2023-05-18T07:24:49.481Z,99.90
2023-05-18T07:27:17.300Z,99.90
2023-05-18T07:29:46.556Z,99.90
2023-05-18T07:32:14.361Z,99.90
2023-05-18T07:34:43.412Z,99.90
2023-05-18T07:37:11.216Z,99.90
2023-05-18T07:39:39.001Z,99.90
2023-05-18T07:42:07.280Z,99.90
2023-05-18T07:44:35.147Z,99.90
2023-05-18T07:47:04.649Z,99.90
2023-05-18T07:49:32.556Z,99.90
2023-05-18T07:52:00.414Z,99.90
2023-05-18T07:54:28.227Z,99.90
2023-05-18T07:56:58.046Z,99.90
2023-05-18T07:59:27.547Z,99.90
2023-05-18T08:01:55.788Z,99.90
2023-05-18T08:04:25.077Z,99.90
2023-05-18T08:06:54.690Z,99.90
2023-05-18T08:09:22.882Z,99.90
2023-05-18T08:11:52.205Z,99.90
2023-05-18T08:14:20.089Z,99.30
2023-05-18T08:16:47.922Z,99.90
2023-05-18T08:19:16.181Z,98.60
2023-05-18T08:21:46.214Z,98.00
2023-05-18T08:24:14.077Z,98.90
2023-05-18T08:26:41.909Z,98.40
2023-05-18T08:29:10.568Z,96.10
2023-05-18T08:31:38.741Z,95.60
2023-05-18T08:34:07.610Z,95.40
2023-05-18T08:36:36.486Z,95.60
2023-05-18T08:39:05.941Z,95.60
2023-05-18T08:41:38.669Z,93.60
2023-05-18T08:44:12.618Z,93.80
2023-05-18T08:46:42.534Z,92.90
2023-05-18T08:49:11.451Z,93.50
2023-05-18T08:51:41.283Z,94.30
2023-05-18T08:54:12.681Z,92.90
2023-05-18T08:56:40.891Z,92.50
2023-05-18T08:59:09.805Z,93.60
2023-05-18T09:01:38.285Z,93.90
2023-05-18T09:04:07.121Z,94.30
2023-05-18T09:06:35.711Z,93.30
2023-05-18T09:09:05.336Z,93.30
2023-05-18T09:11:35.908Z,93.80
2023-05-18T09:14:03.970Z,92.60
2023-05-18T09:16:32.363Z,92.40
2023-05-18T09:19:00.652Z,92.60
2023-05-18T09:21:28.523Z,91.80
2023-05-18T09:23:56.466Z,92.00
2023-05-18T09:26:24.270Z,91.00
2023-05-18T09:28:55.197Z,91.30
2023-05-18T09:31:26.587Z,91.40
2023-05-18T09:33:54.649Z,88.40
2023-05-18T09:36:28.294Z,90.10
2023-05-18T09:38:56.110Z,89.30
2023-05-18T09:41:27.658Z,91.20
2023-05-18T09:43:56.822Z,91.50
2023-05-18T09:46:24.789Z,87.20
2023-05-18T09:48:56.062Z,87.00
2023-05-18T09:51:25.226Z,89.30
2023-05-18T09:53:55.425Z,90.20
2023-05-18T09:56:24.471Z,87.70
2023-05-18T09:58:52.382Z,88.10
2023-05-18T10:01:21.666Z,84.90
2023-05-18T10:03:49.722Z,84.90
2023-05-18T10:06:19.893Z,83.50
2023-05-18T10:08:47.938Z,82.50
2023-05-18T10:11:18.750Z,84.40
2023-05-18T10:13:46.876Z,84.20
2023-05-18T10:16:16.834Z,86.90
2023-05-18T10:18:46.912Z,87.00
2023-05-18T10:21:17.100Z,85.70
2023-05-18T10:23:49.017Z,86.10
2023-05-18T10:26:23.707Z,87.80
2023-05-18T10:28:54.206Z,86.30
2023-05-18T10:31:24.179Z,85.80
2023-05-18T10:33:54.092Z,87.20
2023-05-18T10:36:25.183Z,85.70
2023-05-18T10:38:53.503Z,86.30
2023-05-18T10:41:22.758Z,89.50
2023-05-18T10:43:51.622Z,87.50
2023-05-18T10:46:21.354Z,87.10
2023-05-18T10:48:51.291Z,86.00
2023-05-18T10:51:22.254Z,86.90
2023-05-18T10:53:51.376Z,86.30
2023-05-18T10:56:19.907Z,88.40
2023-05-18T10:58:48.608Z,89.20
2023-05-18T11:01:17.380Z,87.90
2023-05-18T11:03:45.744Z,87.90
2023-05-18T11:06:15.010Z,84.10
2023-05-18T11:08:50.887Z,83.50
2023-05-18T11:11:19.768Z,84.60
2023-05-18T11:13:50.485Z,84.00
2023-05-18T11:16:19.243Z,81.00
2023-05-18T11:18:49.237Z,82.70
2023-05-18T11:21:21.574Z,81.90
2023-05-18T11:24:16.598Z,81.80
2023-05-18T11:26:45.699Z,81.70
2023-05-18T11:29:21.493Z,81.40
2023-05-18T11:31:51.389Z,80.80
2023-05-18T11:34:40.693Z,79.10
2023-05-18T11:37:10.134Z,79.20
2023-05-18T11:39:48.003Z,78.20
2023-05-18T11:42:20.910Z,78.60
2023-05-18T11:44:54.270Z,79.00
2023-05-18T11:47:22.251Z,78.00
2023-05-18T11:49:53.050Z,76.50
2023-05-18T11:52:22.070Z,76.60
2023-05-18T11:54:53.561Z,74.50
2023-05-18T11:57:25.028Z,76.60
2023-05-18T11:59:56.766Z,79.20
2023-05-18T12:02:27.049Z,76.20
2023-05-18T12:04:56.582Z,78.40
2023-05-18T12:07:25.556Z,78.20
2023-05-18T12:09:59.176Z,78.60
2023-05-18T12:12:28.552Z,79.50
2023-05-18T12:14:58.222Z,76.50
2023-05-18T12:17:38.659Z,75.20
2023-05-18T12:20:08.432Z,76.90
2023-05-18T12:22:37.307Z,77.60
2023-05-18T12:25:07.891Z,72.80
2023-05-18T12:27:39.835Z,74.40
2023-05-18T12:30:11.784Z,76.80
2023-05-18T12:32:39.763Z,76.00
2023-05-18T12:35:09.364Z,76.00
2023-05-18T12:37:45.089Z,74.40
2023-05-18T12:40:17.027Z,74.70
2023-05-18T12:42:53.381Z,74.60
2023-05-18T12:45:23.789Z,74.50
2023-05-18T12:47:54.237Z,73.80
2023-05-18T12:50:22.716Z,74.20
2023-05-18T12:52:51.254Z,71.50
2023-05-18T12:55:22.525Z,74.70
2023-05-18T12:58:00.707Z,77.10
2023-05-18T13:00:28.550Z,76.00
2023-05-18T13:03:06.445Z,75.70
2023-05-18T13:05:34.431Z,75.50
2023-05-18T13:08:02.668Z,70.80
2023-05-18T13:10:33.210Z,72.00
2023-05-18T13:13:03.684Z,72.60
2023-05-18T13:15:35.601Z,72.80
2023-05-18T13:18:05.076Z,71.80
2023-05-18T13:20:36.441Z,73.80
2023-05-18T13:23:06.737Z,73.60
2023-05-18T13:25:35.964Z,72.60
2023-05-18T13:28:04.416Z,73.40
2023-05-18T13:30:32.822Z,73.20
2023-05-18T13:33:01.310Z,72.70
2023-05-18T13:35:29.669Z,74.80
2023-05-18T13:37:57.800Z,75.50
2023-05-18T13:40:25.938Z,74.00
2023-05-18T13:42:55.162Z,73.10
2023-05-18T13:45:23.171Z,70.40
2023-05-18T13:47:53.350Z,71.10
2023-05-18T13:50:22.788Z,73.60
2023-05-18T13:52:50.793Z,72.70
2023-05-18T13:55:18.909Z,72.50
2023-05-18T13:57:47.194Z,72.90
2023-05-18T14:00:17.451Z,73.40
2023-05-18T14:02:46.048Z,73.40
2023-05-18T14:05:14.469Z,72.60
2023-05-18T14:07:43.293Z,71.30
2023-05-18T14:10:12.646Z,72.60
2023-05-18T14:12:42.166Z,72.00
2023-05-18T14:15:11.378Z,73.60
2023-05-18T14:17:40.871Z,73.10
2023-05-18T14:20:10.004Z,70.60
2023-05-18T14:22:37.850Z,70.40
2023-05-18T14:25:06.539Z,71.90
2023-05-18T14:27:34.423Z,73.80
2023-05-18T14:30:02.270Z,71.50
2023-05-18T14:32:30.173Z,75.50
2023-05-18T14:34:59.375Z,74.60
2023-05-18T14:37:27.223Z,69.70
2023-05-18T14:39:54.992Z,69.30
2023-05-18T14:42:22.778Z,70.30
2023-05-18T14:44:50.635Z,70.40
2023-05-18T14:47:18.811Z,69.60
2023-05-18T14:49:46.619Z,67.40
2023-05-18T14:52:15.774Z,67.20
2023-05-18T14:54:43.568Z,70.00
2023-05-18T14:57:11.382Z,71.10
2023-05-18T14:59:39.187Z,71.10
2023-05-18T15:02:08.200Z,71.40
2023-05-18T15:04:36.198Z,68.40
2023-05-18T15:07:04.578Z,69.70
2023-05-18T15:09:33.771Z,70.00
2023-05-18T15:12:01.560Z,67.80
2023-05-18T15:14:29.380Z,69.00
2023-05-18T15:16:58.494Z,69.20
2023-05-18T15:19:26.389Z,69.40
2023-05-18T15:21:54.214Z,70.20
2023-05-18T15:24:22.000Z,69.90
2023-05-18T15:26:51.161Z,71.50
2023-05-18T15:29:19.029Z,72.70
2023-05-18T15:31:47.529Z,71.90
2023-05-18T15:34:15.384Z,70.40
2023-05-18T15:36:43.214Z,71.10
2023-05-18T15:39:11.025Z,68.70
2023-05-18T15:41:38.865Z,71.80
2023-05-18T15:44:08.090Z,69.40
2023-05-18T15:46:36.015Z,72.20
2023-05-18T15:49:04.526Z,69.40
2023-05-18T15:51:32.359Z,69.30
2023-05-18T15:54:01.438Z,70.90
2023-05-18T15:56:29.303Z,70.20
2023-05-18T15:58:57.093Z,73.70
2023-05-18T16:01:26.341Z,71.00
2023-05-18T16:03:54.252Z,71.40
2023-05-18T16:06:22.108Z,72.80
2023-05-18T16:08:49.956Z,72.70
2023-05-18T16:11:17.844Z,72.20
2023-05-18T16:13:45.626Z,74.90
2023-05-18T16:16:14.106Z,74.20
2023-05-18T16:18:43.663Z,73.50
2023-05-18T16:21:11.482Z,74.60
2023-05-18T16:23:39.307Z,74.10
2023-05-18T16:26:07.118Z,73.50
2023-05-18T16:28:35.528Z,70.60
2023-05-18T16:31:04.616Z,71.20
2023-05-18T16:33:32.455Z,69.80
2023-05-18T16:36:01.846Z,70.70
2023-05-18T16:38:31.176Z,70.90
2023-05-18T16:40:59.071Z,71.20
2023-05-18T16:43:26.880Z,70.90
2023-05-18T16:45:54.849Z,69.80
2023-05-18T16:48:22.767Z,71.30
2023-05-18T16:50:50.644Z,71.10
2023-05-18T16:53:19.827Z,71.00
2023-05-18T16:55:47.634Z,70.40
2023-05-18T16:58:16.130Z,72.60
2023-05-18T17:00:43.939Z,73.70
2023-05-18T17:03:11.859Z,72.40
2023-05-18T17:05:39.710Z,71.20
2023-05-18T17:08:07.531Z,71.40
2023-05-18T17:10:36.741Z,70.90
2023-05-18T17:13:04.821Z,71.80
2023-05-18T17:15:33.055Z,72.40
2023-05-18T17:18:01.328Z,72.80
2023-05-18T17:20:29.278Z,73.60
2023-05-18T17:22:57.500Z,73.70
2023-05-18T17:25:26.236Z,72.20
2023-05-18T17:27:55.515Z,72.30
2023-05-18T17:30:23.347Z,72.10
2023-05-18T17:32:51.247Z,71.40
2023-05-18T17:35:19.279Z,71.90
2023-05-18T17:37:48.666Z,71.90
2023-05-18T17:40:16.490Z,71.80
2023-05-18T17:42:44.294Z,71.10
2023-05-18T17:45:13.553Z,72.60
2023-05-18T17:47:42.071Z,73.40
2023-05-18T17:50:10.274Z,74.60
2023-05-18T17:52:38.114Z,75.00
2023-05-18T17:55:06.763Z,74.80
2023-05-18T17:57:34.716Z,75.10
2023-05-18T18:00:02.636Z,75.90
2023-05-18T18:02:31.770Z,76.60
2023-05-18T18:04:59.571Z,76.20
2023-05-18T18:07:27.354Z,77.50
2023-05-18T18:09:55.114Z,77.60
2023-05-18T18:12:22.972Z,78.50
2023-05-18T18:14:50.752Z,79.60
2023-05-18T18:17:18.955Z,79.70
2023-05-18T18:19:48.193Z,80.60
2023-05-18T18:22:15.970Z,80.70
2023-05-18T18:24:43.767Z,81.10
2023-05-18T18:27:11.680Z,81.00
2023-05-18T18:29:39.482Z,82.20
2023-05-18T18:32:08.323Z,83.30
2023-05-18T18:34:36.147Z,84.20
2023-05-18T18:37:05.615Z,85.80
2023-05-18T18:39:33.550Z,87.60
2023-05-18T18:42:01.407Z,88.90
2023-05-18T18:44:29.357Z,90.00
2023-05-18T18:46:57.200Z,90.30
2023-05-18T18:49:25.115Z,90.60
2023-05-18T18:51:53.101Z,90.70
2023-05-18T18:54:23.419Z,91.40
2023-05-18T18:56:51.250Z,91.50
2023-05-18T18:59:19.301Z,91.60
2023-05-18T19:01:47.309Z,91.50
2023-05-18T19:04:15.282Z,91.60
2023-05-18T19:06:43.731Z,91.90
2023-05-18T19:09:11.548Z,92.00
2023-05-18T19:11:40.865Z,92.50
2023-05-18T19:14:08.686Z,92.80
2023-05-18T19:16:36.690Z,93.20
2023-05-18T19:19:08.666Z,93.80
2023-05-18T19:21:36.719Z,94.30
2023-05-18T19:24:04.580Z,94.60
2023-05-18T19:26:32.769Z,94.90
2023-05-18T19:29:02.013Z,95.20
2023-05-18T19:31:31.518Z,95.60
2023-05-18T19:34:00.577Z,96.30
2023-05-18T19:36:28.582Z,96.30
2023-05-18T19:38:56.579Z,96.30
2023-05-18T19:41:24.883Z,96.40
2023-05-18T19:43:52.824Z,96.40
2023-05-18T19:46:22.020Z,96.60
2023-05-18T19:48:49.916Z,96.60
2023-05-18T19:51:18.425Z,96.60
2023-05-18T19:53:46.299Z,97.00
2023-05-18T19:56:14.178Z,96.80
2023-05-18T19:58:42.000Z,96.90
2023-05-18T20:01:10.365Z,97.00
2023-05-18T20:03:42.427Z,97.00
2023-05-18T20:06:11.407Z,97.10
2023-05-18T20:08:39.511Z,97.30
2023-05-18T20:11:07.307Z,97.30
2023-05-18T20:13:35.132Z,97.50
2023-05-18T20:16:03.752Z,98.10
2023-05-18T20:18:34.819Z,98.80
2023-05-18T20:21:04.162Z,99.40
2023-05-18T20:23:31.985Z,99.90
2023-05-18T20:26:00.518Z,99.90
2023-05-18T20:28:30.964Z,99.90
2023-05-18T20:30:59.161Z,99.90
2023-05-18T20:33:27.065Z,99.90
2023-05-18T20:35:54.943Z,99.90
2023-05-18T20:38:25.653Z,99.90
2023-05-18T20:40:53.791Z,99.90
2023-05-18T20:43:21.558Z,99.90
2023-05-18T20:45:51.230Z,99.90
2023-05-18T20:48:24.860Z,99.90
2023-05-18T20:50:52.727Z,99.90
2023-05-18T20:53:21.095Z,99.90
2023-05-18T20:55:50.941Z,99.90
2023-05-18T20:58:19.751Z,99.90
2023-05-18T21:00:47.809Z,99.90
2023-05-18T21:03:18.217Z,99.90
2023-05-18T21:05:49.418Z,99.90
2023-05-18T21:08:17.332Z,99.90
2023-05-18T21:10:45.132Z,99.90
2023-05-18T21:13:14.967Z,99.90
2023-05-18T21:15:42.895Z,99.90
2023-05-18T21:18:10.960Z,99.90
2023-05-18T21:20:38.838Z,99.90
2023-05-18T21:23:06.657Z,99.90
2023-05-18T21:25:34.569Z,99.90
2023-05-18T21:28:02.397Z,99.90
2023-05-18T21:30:32.363Z,99.90
2023-05-18T21:33:00.757Z,99.90
2023-05-18T21:35:28.777Z,99.90
2023-05-18T21:37:56.762Z,99.90
2023-05-18T21:40:24.549Z,99.90
2023-05-18T21:42:52.342Z,99.90
2023-05-18T21:45:22.312Z,99.90
2023-05-18T21:47:54.536Z,99.90
2023-05-18T21:50:22.387Z,99.90
2023-05-18T21:52:50.249Z,99.90
2023-05-18T21:55:19.245Z,99.90
2023-05-18T21:57:47.083Z,99.90
2023-05-18T22:00:17.928Z,99.90
2023-05-18T22:02:45.774Z,99.90
2023-05-18T22:05:15.046Z,99.90
2023-05-18T22:07:42.906Z,99.90
2023-05-18T22:10:11.587Z,99.90
2023-05-18T22:12:40.976Z,99.90
2023-05-18T22:15:10.343Z,99.90
2023-05-18T22:17:38.655Z,99.90
2023-05-18T22:20:09.486Z,99.90
2023-05-18T22:22:39.339Z,99.90
2023-05-18T22:25:08.142Z,99.90
2023-05-18T22:27:36.670Z,99.90
2023-05-18T22:30:06.054Z,99.90
2023-05-18T22:32:34.000Z,99.90
2023-05-18T22:35:02.261Z,99.90
2023-05-18T22:37:30.074Z,99.90
2023-05-18T22:39:59.238Z,99.90
2023-05-18T22:42:27.068Z,99.90
2023-05-18T22:44:54.881Z,99.90
2023-05-18T22:47:23.649Z,99.90
2023-05-18T22:49:51.802Z,99.90
2023-05-18T22:52:19.592Z,99.90
2023-05-18T22:54:47.547Z,99.90
2023-05-18T22:57:16.754Z,99.90
2023-05-18T22:59:44.564Z,99.90
2023-05-18T23:02:12.468Z,99.90
2023-05-18T23:04:40.370Z,99.90
2023-05-18T23:07:08.969Z,99.90
2023-05-18T23:09:39.652Z,99.90
2023-05-18T23:12:10.125Z,99.90
2023-05-18T23:14:39.367Z,99.90
2023-05-18T23:17:08.122Z,99.90
2023-05-18T23:19:36.106Z,99.90
2023-05-18T23:22:05.493Z,99.90
2023-05-18T23:24:33.389Z,99.90
2023-05-18T23:27:01.257Z,99.90
2023-05-18T23:29:29.051Z,99.90
2023-05-18T23:31:58.339Z,99.90
2023-05-18T23:34:27.433Z,99.90
2023-05-18T23:36:57.365Z,99.90
2023-05-18T23:39:27.600Z,99.90
2023-05-18T23:41:58.542Z,99.90
2023-05-18T23:44:27.044Z,99.90
2023-05-18T23:46:55.729Z,99.90
2023-05-18T23:49:25.782Z,99.90
2023-05-18T23:51:54.281Z,99.90
2023-05-18T23:54:23.460Z,99.90
2023-05-18T23:56:51.865Z,99.90
2023-05-18T23:59:20.362Z,99.90
